sensor_id;sensor_type;location;lat;lon;timestamp;P1;durP1;ratioP1;P2;durP2;ratioP2
58752;SDS011;44525;46.052;13.610;2022-11-20T00:00:52;4.45;;;2.17;;
58752;SDS011;44525;46.052;13.610;2022-11-20T00:03:18;1.73;;;1.63;;
58752;SDS011;44525;46.052;13.610;2022-11-20T00:05:43;1.83;;;1.58;;
58752;SDS011;44525;46.052;13.610;2022-11-20T00:08:09;3.13;;;2.00;;
58752;SDS011;44525;46.052;13.610;2022-11-20T00:10:36;2.00;;;1.80;;
58752;SDS011;44525;46.052;13.610;2022-11-20T00:13:02;1.33;;;1.23;;
58752;SDS011;44525;46.052;13.610;2022-11-20T00:15:28;4.28;;;2.22;;
58752;SDS011;44525;46.052;13.610;2022-11-20T00:17:54;2.40;;;1.83;;
58752;SDS011;44525;46.052;13.610;2022-11-20T00:20:19;3.92;;;2.50;;
58752;SDS011;44525;46.052;13.610;2022-11-20T00:22:45;2.10;;;1.67;;
58752;SDS011;44525;46.052;13.610;2022-11-20T00:25:10;2.42;;;1.95;;
58752;SDS011;44525;46.052;13.610;2022-11-20T00:27:36;2.67;;;2.00;;
58752;SDS011;44525;46.052;13.610;2022-11-20T00:30:03;2.45;;;1.70;;
58752;SDS011;44525;46.052;13.610;2022-11-20T00:32:29;1.98;;;1.60;;
58752;SDS011;44525;46.052;13.610;2022-11-20T00:34:55;2.13;;;1.73;;
58752;SDS011;44525;46.052;13.610;2022-11-20T00:37:20;1.63;;;1.52;;
58752;SDS011;44525;46.052;13.610;2022-11-20T00:39:46;3.25;;;2.00;;
58752;SDS011;44525;46.052;13.610;2022-11-20T00:42:11;2.30;;;1.90;;
58752;SDS011;44525;46.052;13.610;2022-11-20T00:44:36;2.22;;;1.50;;
58752;SDS011;44525;46.052;13.610;2022-11-20T00:47:02;2.70;;;2.05;;
58752;SDS011;44525;46.052;13.610;2022-11-20T00:49:27;2.42;;;1.65;;
58752;SDS011;44525;46.052;13.610;2022-11-20T00:51:53;3.17;;;2.05;;
58752;SDS011;44525;46.052;13.610;2022-11-20T00:54:18;3.35;;;2.03;;
58752;SDS011;44525;46.052;13.610;2022-11-20T00:56:44;4.07;;;2.22;;
58752;SDS011;44525;46.052;13.610;2022-11-20T00:59:10;2.88;;;1.90;;
58752;SDS011;44525;46.052;13.610;2022-11-20T01:01:36;2.33;;;1.75;;
58752;SDS011;44525;46.052;13.610;2022-11-20T01:04:02;3.30;;;2.15;;
58752;SDS011;44525;46.052;13.610;2022-11-20T01:06:32;3.90;;;2.00;;
58752;SDS011;44525;46.052;13.610;2022-11-20T01:09:01;3.47;;;2.10;;
58752;SDS011;44525;46.052;13.610;2022-11-20T01:11:33;2.67;;;2.00;;
58752;SDS011;44525;46.052;13.610;2022-11-20T01:14:01;2.30;;;1.92;;
58752;SDS011;44525;46.052;13.610;2022-11-20T01:16:30;3.67;;;1.98;;
58752;SDS011;44525;46.052;13.610;2022-11-20T01:19:01;2.78;;;1.95;;
58752;SDS011;44525;46.052;13.610;2022-11-20T01:21:32;2.88;;;2.15;;
58752;SDS011;44525;46.052;13.610;2022-11-20T01:23:59;2.95;;;2.00;;
58752;SDS011;44525;46.052;13.610;2022-11-20T01:26:27;3.58;;;2.20;;
58752;SDS011;44525;46.052;13.610;2022-11-20T01:28:55;2.47;;;1.95;;
58752;SDS011;44525;46.052;13.610;2022-11-20T01:31:22;1.90;;;1.73;;
58752;SDS011;44525;46.052;13.610;2022-11-20T01:33:53;2.97;;;1.90;;
58752;SDS011;44525;46.052;13.610;2022-11-20T01:36:21;2.65;;;1.90;;
58752;SDS011;44525;46.052;13.610;2022-11-20T01:38:47;3.72;;;2.10;;
58752;SDS011;44525;46.052;13.610;2022-11-20T01:41:16;1.95;;;1.73;;
58752;SDS011;44525;46.052;13.610;2022-11-20T01:44:00;1.98;;;1.83;;
58752;SDS011;44525;46.052;13.610;2022-11-20T01:46:27;2.88;;;1.98;;
58752;SDS011;44525;46.052;13.610;2022-11-20T01:51:30;1.85;;;1.70;;
58752;SDS011;44525;46.052;13.610;2022-11-20T01:54:01;10.82;;;2.47;;
58752;SDS011;44525;46.052;13.610;2022-11-20T01:56:37;2.60;;;1.90;;
58752;SDS011;44525;46.052;13.610;2022-11-20T01:59:07;3.05;;;1.95;;
58752;SDS011;44525;46.052;13.610;2022-11-20T02:01:35;1.90;;;1.60;;
58752;SDS011;44525;46.052;13.610;2022-11-20T02:04:01;4.25;;;2.00;;
58752;SDS011;44525;46.052;13.610;2022-11-20T02:06:29;4.38;;;2.00;;
58752;SDS011;44525;46.052;13.610;2022-11-20T02:09:00;2.53;;;1.80;;
58752;SDS011;44525;46.052;13.610;2022-11-20T02:11:26;2.22;;;1.92;;
58752;SDS011;44525;46.052;13.610;2022-11-20T02:13:51;4.40;;;1.98;;
58752;SDS011;44525;46.052;13.610;2022-11-20T02:16:21;2.22;;;1.77;;
58752;SDS011;44525;46.052;13.610;2022-11-20T02:18:47;2.05;;;1.67;;
58752;SDS011;44525;46.052;13.610;2022-11-20T02:21:20;2.90;;;1.88;;
58752;SDS011;44525;46.052;13.610;2022-11-20T02:24:00;2.38;;;1.80;;
58752;SDS011;44525;46.052;13.610;2022-11-20T02:26:30;4.18;;;2.15;;
58752;SDS011;44525;46.052;13.610;2022-11-20T02:29:00;2.58;;;1.80;;
58752;SDS011;44525;46.052;13.610;2022-11-20T02:31:27;2.75;;;2.15;;
58752;SDS011;44525;46.052;13.610;2022-11-20T02:33:56;2.15;;;1.58;;
58752;SDS011;44525;46.052;13.610;2022-11-20T02:36:22;3.45;;;1.73;;
58752;SDS011;44525;46.052;13.610;2022-11-20T02:38:51;2.30;;;1.95;;
58752;SDS011;44525;46.052;13.610;2022-11-20T02:41:19;2.88;;;2.10;;
58752;SDS011;44525;46.052;13.610;2022-11-20T02:43:45;4.45;;;1.92;;
58752;SDS011;44525;46.052;13.610;2022-11-20T02:46:10;2.08;;;1.80;;
58752;SDS011;44525;46.052;13.610;2022-11-20T02:48:36;2.30;;;1.83;;
58752;SDS011;44525;46.052;13.610;2022-11-20T02:51:01;3.45;;;2.05;;
58752;SDS011;44525;46.052;13.610;2022-11-20T02:53:28;2.80;;;1.83;;
58752;SDS011;44525;46.052;13.610;2022-11-20T02:55:54;1.80;;;1.70;;
58752;SDS011;44525;46.052;13.610;2022-11-20T02:58:20;2.42;;;1.95;;
58752;SDS011;44525;46.052;13.610;2022-11-20T03:00:45;2.60;;;1.95;;
58752;SDS011;44525;46.052;13.610;2022-11-20T03:03:11;3.65;;;2.50;;
58752;SDS011;44525;46.052;13.610;2022-11-20T03:05:36;2.17;;;1.70;;
58752;SDS011;44525;46.052;13.610;2022-11-20T03:08:02;2.80;;;2.00;;
58752;SDS011;44525;46.052;13.610;2022-11-20T03:10:27;3.25;;;2.10;;
58752;SDS011;44525;46.052;13.610;2022-11-20T03:12:53;2.53;;;1.95;;
58752;SDS011;44525;46.052;13.610;2022-11-20T03:15:20;3.20;;;2.08;;
58752;SDS011;44525;46.052;13.610;2022-11-20T03:17:46;3.42;;;2.20;;
58752;SDS011;44525;46.052;13.610;2022-11-20T03:20:11;1.98;;;1.70;;
58752;SDS011;44525;46.052;13.610;2022-11-20T03:22:37;3.03;;;2.20;;
58752;SDS011;44525;46.052;13.610;2022-11-20T03:25:06;2.58;;;2.15;;
58752;SDS011;44525;46.052;13.610;2022-11-20T03:27:32;2.67;;;2.13;;
58752;SDS011;44525;46.052;13.610;2022-11-20T03:29:59;3.05;;;1.90;;
58752;SDS011;44525;46.052;13.610;2022-11-20T03:32:24;3.08;;;2.20;;
58752;SDS011;44525;46.052;13.610;2022-11-20T03:34:50;2.97;;;2.10;;
58752;SDS011;44525;46.052;13.610;2022-11-20T03:37:15;2.90;;;1.90;;
58752;SDS011;44525;46.052;13.610;2022-11-20T03:39:41;2.85;;;2.20;;
58752;SDS011;44525;46.052;13.610;2022-11-20T03:42:06;3.00;;;2.05;;
58752;SDS011;44525;46.052;13.610;2022-11-20T03:44:53;2.72;;;2.10;;
58752;SDS011;44525;46.052;13.610;2022-11-20T03:47:18;1.67;;;1.58;;
58752;SDS011;44525;46.052;13.610;2022-11-20T03:49:43;1.73;;;1.45;;
58752;SDS011;44525;46.052;13.610;2022-11-20T03:52:09;2.33;;;1.70;;
58752;SDS011;44525;46.052;13.610;2022-11-20T03:54:34;3.38;;;1.75;;
58752;SDS011;44525;46.052;13.610;2022-11-20T03:57:00;2.25;;;1.88;;
58752;SDS011;44525;46.052;13.610;2022-11-20T03:59:25;1.67;;;1.58;;
58752;SDS011;44525;46.052;13.610;2022-11-20T04:01:51;2.20;;;1.90;;
58752;SDS011;44525;46.052;13.610;2022-11-20T04:04:17;3.95;;;2.05;;
58752;SDS011;44525;46.052;13.610;2022-11-20T04:06:42;2.40;;;2.00;;
58752;SDS011;44525;46.052;13.610;2022-11-20T04:09:08;2.38;;;2.00;;
58752;SDS011;44525;46.052;13.610;2022-11-20T04:11:34;2.30;;;2.05;;
58752;SDS011;44525;46.052;13.610;2022-11-20T04:14:02;2.83;;;1.95;;
58752;SDS011;44525;46.052;13.610;2022-11-20T04:16:30;2.30;;;1.80;;
58752;SDS011;44525;46.052;13.610;2022-11-20T04:19:01;2.53;;;1.70;;
58752;SDS011;44525;46.052;13.610;2022-11-20T04:21:29;3.45;;;2.60;;
58752;SDS011;44525;46.052;13.610;2022-11-20T04:23:55;3.05;;;2.20;;
58752;SDS011;44525;46.052;13.610;2022-11-20T04:26:22;2.85;;;2.00;;
58752;SDS011;44525;46.052;13.610;2022-11-20T04:28:49;1.42;;;1.33;;
58752;SDS011;44525;46.052;13.610;2022-11-20T04:31:16;3.03;;;2.35;;
58752;SDS011;44525;46.052;13.610;2022-11-20T04:33:48;2.65;;;1.92;;
58752;SDS011;44525;46.052;13.610;2022-11-20T04:36:14;2.30;;;1.85;;
58752;SDS011;44525;46.052;13.610;2022-11-20T04:38:54;2.20;;;1.77;;
58752;SDS011;44525;46.052;13.610;2022-11-20T04:41:22;3.53;;;2.00;;
58752;SDS011;44525;46.052;13.610;2022-11-20T04:43:53;2.67;;;1.92;;
58752;SDS011;44525;46.052;13.610;2022-11-20T04:46:24;3.50;;;2.00;;
58752;SDS011;44525;46.052;13.610;2022-11-20T04:48:51;2.58;;;1.92;;
58752;SDS011;44525;46.052;13.610;2022-11-20T04:51:17;2.20;;;1.58;;
58752;SDS011;44525;46.052;13.610;2022-11-20T04:53:42;3.08;;;1.90;;
58752;SDS011;44525;46.052;13.610;2022-11-20T04:56:08;1.65;;;1.50;;
58752;SDS011;44525;46.052;13.610;2022-11-20T04:58:36;2.40;;;1.75;;
58752;SDS011;44525;46.052;13.610;2022-11-20T05:03:27;1.60;;;1.48;;
58752;SDS011;44525;46.052;13.610;2022-11-20T05:05:53;3.15;;;2.30;;
58752;SDS011;44525;46.052;13.610;2022-11-20T05:08:20;2.97;;;2.10;;
58752;SDS011;44525;46.052;13.610;2022-11-20T05:10:46;3.58;;;2.22;;
58752;SDS011;44525;46.052;13.610;2022-11-20T05:13:12;4.13;;;2.10;;
58752;SDS011;44525;46.052;13.610;2022-11-20T05:15:37;1.90;;;1.65;;
58752;SDS011;44525;46.052;13.610;2022-11-20T05:18:03;3.45;;;2.20;;
58752;SDS011;44525;46.052;13.610;2022-11-20T05:20:28;7.13;;;3.50;;
58752;SDS011;44525;46.052;13.610;2022-11-20T05:22:57;7.55;;;3.20;;
58752;SDS011;44525;46.052;13.610;2022-11-20T05:25:23;5.03;;;3.10;;
58752;SDS011;44525;46.052;13.610;2022-11-20T05:27:48;3.40;;;2.45;;
58752;SDS011;44525;46.052;13.610;2022-11-20T05:30:14;3.15;;;2.30;;
58752;SDS011;44525;46.052;13.610;2022-11-20T05:32:39;3.10;;;2.22;;
58752;SDS011;44525;46.052;13.610;2022-11-20T05:35:05;4.70;;;2.70;;
58752;SDS011;44525;46.052;13.610;2022-11-20T05:37:31;6.05;;;2.92;;
58752;SDS011;44525;46.052;13.610;2022-11-20T05:39:56;4.57;;;2.50;;
58752;SDS011;44525;46.052;13.610;2022-11-20T05:42:22;4.30;;;2.70;;
58752;SDS011;44525;46.052;13.610;2022-11-20T05:44:57;4.68;;;2.55;;
58752;SDS011;44525;46.052;13.610;2022-11-20T05:47:23;3.97;;;2.83;;
58752;SDS011;44525;46.052;13.610;2022-11-20T05:49:49;7.28;;;3.50;;
58752;SDS011;44525;46.052;13.610;2022-11-20T05:52:14;4.25;;;2.80;;
58752;SDS011;44525;46.052;13.610;2022-11-20T05:54:40;4.35;;;2.60;;
58752;SDS011;44525;46.052;13.610;2022-11-20T05:57:05;5.95;;;3.42;;
58752;SDS011;44525;46.052;13.610;2022-11-20T05:59:31;5.18;;;3.00;;
58752;SDS011;44525;46.052;13.610;2022-11-20T06:01:56;7.35;;;3.40;;
58752;SDS011;44525;46.052;13.610;2022-11-20T06:04:22;5.00;;;2.92;;
58752;SDS011;44525;46.052;13.610;2022-11-20T06:06:47;4.72;;;2.80;;
58752;SDS011;44525;46.052;13.610;2022-11-20T06:09:13;4.72;;;2.80;;
58752;SDS011;44525;46.052;13.610;2022-11-20T06:11:38;4.70;;;2.50;;
58752;SDS011;44525;46.052;13.610;2022-11-20T06:14:04;3.70;;;2.50;;
58752;SDS011;44525;46.052;13.610;2022-11-20T06:16:29;4.13;;;2.60;;
58752;SDS011;44525;46.052;13.610;2022-11-20T06:18:55;6.03;;;2.83;;
58752;SDS011;44525;46.052;13.610;2022-11-20T06:21:21;5.95;;;2.95;;
58752;SDS011;44525;46.052;13.610;2022-11-20T06:23:49;4.68;;;3.00;;
58752;SDS011;44525;46.052;13.610;2022-11-20T06:26:19;5.40;;;3.13;;
58752;SDS011;44525;46.052;13.610;2022-11-20T06:28:46;4.72;;;3.25;;
58752;SDS011;44525;46.052;13.610;2022-11-20T06:31:13;5.03;;;3.35;;
58752;SDS011;44525;46.052;13.610;2022-11-20T06:33:40;4.72;;;3.20;;
58752;SDS011;44525;46.052;13.610;2022-11-20T06:36:06;4.97;;;3.25;;
58752;SDS011;44525;46.052;13.610;2022-11-20T06:38:32;7.53;;;3.13;;
58752;SDS011;44525;46.052;13.610;2022-11-20T06:40:57;4.85;;;2.88;;
58752;SDS011;44525;46.052;13.610;2022-11-20T06:43:23;6.90;;;4.45;;
58752;SDS011;44525;46.052;13.610;2022-11-20T06:45:53;4.90;;;3.28;;
58752;SDS011;44525;46.052;13.610;2022-11-20T06:48:19;4.00;;;2.60;;
58752;SDS011;44525;46.052;13.610;2022-11-20T06:50:45;3.83;;;2.70;;
58752;SDS011;44525;46.052;13.610;2022-11-20T06:53:11;5.50;;;3.20;;
58752;SDS011;44525;46.052;13.610;2022-11-20T06:55:36;4.75;;;3.15;;
58752;SDS011;44525;46.052;13.610;2022-11-20T06:58:07;7.40;;;3.00;;
58752;SDS011;44525;46.052;13.610;2022-11-20T07:00:32;3.60;;;2.38;;
58752;SDS011;44525;46.052;13.610;2022-11-20T07:02:58;4.47;;;2.60;;
58752;SDS011;44525;46.052;13.610;2022-11-20T07:05:28;6.32;;;4.10;;
58752;SDS011;44525;46.052;13.610;2022-11-20T07:07:55;5.20;;;3.53;;
58752;SDS011;44525;46.052;13.610;2022-11-20T07:10:25;2.65;;;2.10;;
58752;SDS011;44525;46.052;13.610;2022-11-20T07:12:52;2.95;;;1.88;;
58752;SDS011;44525;46.052;13.610;2022-11-20T07:15:18;4.45;;;2.60;;
58752;SDS011;44525;46.052;13.610;2022-11-20T07:17:45;4.38;;;2.83;;
58752;SDS011;44525;46.052;13.610;2022-11-20T07:20:11;6.05;;;2.80;;
58752;SDS011;44525;46.052;13.610;2022-11-20T07:22:37;5.65;;;3.08;;
58752;SDS011;44525;46.052;13.610;2022-11-20T07:25:04;4.97;;;3.30;;
58752;SDS011;44525;46.052;13.610;2022-11-20T07:27:29;5.45;;;3.38;;
58752;SDS011;44525;46.052;13.610;2022-11-20T07:29:56;5.07;;;3.30;;
58752;SDS011;44525;46.052;13.610;2022-11-20T07:32:23;7.63;;;3.60;;
58752;SDS011;44525;46.052;13.610;2022-11-20T07:34:49;7.22;;;4.30;;
58752;SDS011;44525;46.052;13.610;2022-11-20T07:37:14;6.30;;;3.40;;
58752;SDS011;44525;46.052;13.610;2022-11-20T07:39:41;7.15;;;4.75;;
58752;SDS011;44525;46.052;13.610;2022-11-20T07:42:07;11.35;;;5.78;;
58752;SDS011;44525;46.052;13.610;2022-11-20T07:44:33;13.98;;;8.30;;
58752;SDS011;44525;46.052;13.610;2022-11-20T07:46:58;16.70;;;9.38;;
58752;SDS011;44525;46.052;13.610;2022-11-20T07:49:24;17.25;;;9.25;;
58752;SDS011;44525;46.052;13.610;2022-11-20T07:51:50;10.40;;;5.80;;
58752;SDS011;44525;46.052;13.610;2022-11-20T07:54:18;10.35;;;4.90;;
58752;SDS011;44525;46.052;13.610;2022-11-20T07:56:44;9.52;;;5.25;;
58752;SDS011;44525;46.052;13.610;2022-11-20T07:59:09;9.00;;;5.00;;
58752;SDS011;44525;46.052;13.610;2022-11-20T08:01:36;9.55;;;5.93;;
58752;SDS011;44525;46.052;13.610;2022-11-20T08:04:03;8.52;;;4.20;;
58752;SDS011;44525;46.052;13.610;2022-11-20T08:06:30;9.13;;;4.80;;
58752;SDS011;44525;46.052;13.610;2022-11-20T08:08:55;7.90;;;5.68;;
58752;SDS011;44525;46.052;13.610;2022-11-20T08:11:21;7.53;;;4.75;;
58752;SDS011;44525;46.052;13.610;2022-11-20T08:14:05;9.00;;;4.28;;
58752;SDS011;44525;46.052;13.610;2022-11-20T08:16:36;8.95;;;5.20;;
58752;SDS011;44525;46.052;13.610;2022-11-20T08:19:02;6.22;;;3.78;;
58752;SDS011;44525;46.052;13.610;2022-11-20T08:21:28;4.57;;;2.60;;
58752;SDS011;44525;46.052;13.610;2022-11-20T08:23:54;4.88;;;3.08;;
58752;SDS011;44525;46.052;13.610;2022-11-20T08:26:20;4.75;;;3.28;;
58752;SDS011;44525;46.052;13.610;2022-11-20T08:28:46;5.53;;;3.50;;
58752;SDS011;44525;46.052;13.610;2022-11-20T08:31:12;5.32;;;3.30;;
58752;SDS011;44525;46.052;13.610;2022-11-20T08:33:37;4.82;;;3.00;;
58752;SDS011;44525;46.052;13.610;2022-11-20T08:36:03;5.55;;;3.25;;
58752;SDS011;44525;46.052;13.610;2022-11-20T08:38:29;4.25;;;3.00;;
58752;SDS011;44525;46.052;13.610;2022-11-20T08:40:56;4.03;;;2.92;;
58752;SDS011;44525;46.052;13.610;2022-11-20T08:43:44;6.75;;;3.72;;
58752;SDS011;44525;46.052;13.610;2022-11-20T08:46:09;6.15;;;3.85;;
58752;SDS011;44525;46.052;13.610;2022-11-20T08:48:35;6.70;;;3.63;;
58752;SDS011;44525;46.052;13.610;2022-11-20T08:51:01;8.38;;;4.10;;
58752;SDS011;44525;46.052;13.610;2022-11-20T08:53:27;18.77;;;9.10;;
58752;SDS011;44525;46.052;13.610;2022-11-20T08:55:52;9.75;;;5.50;;
58752;SDS011;44525;46.052;13.610;2022-11-20T08:58:18;5.15;;;3.55;;
58752;SDS011;44525;46.052;13.610;2022-11-20T09:00:43;6.22;;;4.30;;
58752;SDS011;44525;46.052;13.610;2022-11-20T09:03:10;13.70;;;4.97;;
58752;SDS011;44525;46.052;13.610;2022-11-20T09:05:35;6.97;;;4.63;;
58752;SDS011;44525;46.052;13.610;2022-11-20T09:08:01;8.30;;;4.20;;
58752;SDS011;44525;46.052;13.610;2022-11-20T09:10:27;6.03;;;3.05;;
58752;SDS011;44525;46.052;13.610;2022-11-20T09:12:52;4.90;;;2.75;;
58752;SDS011;44525;46.052;13.610;2022-11-20T09:15:20;3.40;;;2.17;;
58752;SDS011;44525;46.052;13.610;2022-11-20T09:17:52;3.40;;;2.05;;
58752;SDS011;44525;46.052;13.610;2022-11-20T09:20:25;5.78;;;4.07;;
58752;SDS011;44525;46.052;13.610;2022-11-20T09:22:51;2.17;;;1.58;;
58752;SDS011;44525;46.052;13.610;2022-11-20T09:25:18;2.17;;;1.75;;
58752;SDS011;44525;46.052;13.610;2022-11-20T09:27:43;1.38;;;1.23;;
58752;SDS011;44525;46.052;13.610;2022-11-20T09:30:11;2.35;;;1.80;;
58752;SDS011;44525;46.052;13.610;2022-11-20T09:32:41;3.17;;;2.17;;
58752;SDS011;44525;46.052;13.610;2022-11-20T09:35:07;1.92;;;1.60;;
58752;SDS011;44525;46.052;13.610;2022-11-20T09:37:33;1.30;;;1.20;;
58752;SDS011;44525;46.052;13.610;2022-11-20T09:39:59;1.35;;;1.23;;
58752;SDS011;44525;46.052;13.610;2022-11-20T09:43:08;1.50;;;1.27;;
58752;SDS011;44525;46.052;13.610;2022-11-20T09:50:56;1.13;;;1.10;;
58752;SDS011;44525;46.052;13.610;2022-11-20T09:56:06;1.52;;;1.40;;
58752;SDS011;44525;46.052;13.610;2022-11-20T09:58:38;1.17;;;1.10;;
58752;SDS011;44525;46.052;13.610;2022-11-20T10:01:14;2.13;;;1.85;;
58752;SDS011;44525;46.052;13.610;2022-11-20T10:04:24;2.15;;;1.67;;
58752;SDS011;44525;46.052;13.610;2022-11-20T10:06:51;1.75;;;1.50;;
58752;SDS011;44525;46.052;13.610;2022-11-20T10:09:37;3.47;;;2.20;;
58752;SDS011;44525;46.052;13.610;2022-11-20T10:20:46;2.88;;;2.08;;
58752;SDS011;44525;46.052;13.610;2022-11-20T10:23:25;2.40;;;2.00;;
58752;SDS011;44525;46.052;13.610;2022-11-20T10:25:58;1.60;;;1.50;;
58752;SDS011;44525;46.052;13.610;2022-11-20T10:31:17;1.98;;;1.50;;
58752;SDS011;44525;46.052;13.610;2022-11-20T10:34:24;1.85;;;1.55;;
58752;SDS011;44525;46.052;13.610;2022-11-20T10:37:01;2.30;;;1.73;;
58752;SDS011;44525;46.052;13.610;2022-11-20T10:42:08;2.17;;;1.77;;
58752;SDS011;44525;46.052;13.610;2022-11-20T10:44:39;3.08;;;2.13;;
58752;SDS011;44525;46.052;13.610;2022-11-20T10:47:27;5.03;;;2.50;;
58752;SDS011;44525;46.052;13.610;2022-11-20T10:49:55;3.03;;;1.60;;
58752;SDS011;44525;46.052;13.610;2022-11-20T10:57:50;1.80;;;1.40;;
58752;SDS011;44525;46.052;13.610;2022-11-20T11:00:35;4.63;;;2.30;;
58752;SDS011;44525;46.052;13.610;2022-11-20T11:03:01;3.13;;;2.00;;
58752;SDS011;44525;46.052;13.610;2022-11-20T11:08:10;1.92;;;1.60;;
58752;SDS011;44525;46.052;13.610;2022-11-20T11:10:45;2.58;;;1.58;;
58752;SDS011;44525;46.052;13.610;2022-11-20T11:15:53;1.88;;;1.58;;
58752;SDS011;44525;46.052;13.610;2022-11-20T11:18:23;2.50;;;2.10;;
58752;SDS011;44525;46.052;13.610;2022-11-20T11:20:52;4.20;;;2.35;;
58752;SDS011;44525;46.052;13.610;2022-11-20T11:23:34;2.30;;;1.80;;
58752;SDS011;44525;46.052;13.610;2022-11-20T11:26:04;3.50;;;2.00;;
58752;SDS011;44525;46.052;13.610;2022-11-20T11:28:31;2.65;;;1.85;;
58752;SDS011;44525;46.052;13.610;2022-11-20T11:30:58;2.28;;;2.00;;
58752;SDS011;44525;46.052;13.610;2022-11-20T11:35:51;3.33;;;2.03;;
58752;SDS011;44525;46.052;13.610;2022-11-20T11:38:36;1.90;;;1.73;;
58752;SDS011;44525;46.052;13.610;2022-11-20T11:41:04;3.20;;;1.70;;
58752;SDS011;44525;46.052;13.610;2022-11-20T11:43:32;1.95;;;1.75;;
58752;SDS011;44525;46.052;13.610;2022-11-20T11:46:31;2.35;;;1.65;;
58752;SDS011;44525;46.052;13.610;2022-11-20T11:51:28;1.98;;;1.60;;
58752;SDS011;44525;46.052;13.610;2022-11-20T11:54:03;3.95;;;2.22;;
58752;SDS011;44525;46.052;13.610;2022-11-20T11:56:37;1.92;;;1.63;;
58752;SDS011;44525;46.052;13.610;2022-11-20T11:59:04;2.85;;;1.88;;
58752;SDS011;44525;46.052;13.610;2022-11-20T12:04:46;3.40;;;2.17;;
58752;SDS011;44525;46.052;13.610;2022-11-20T12:10:20;2.33;;;1.90;;
58752;SDS011;44525;46.052;13.610;2022-11-20T12:12:51;3.38;;;2.20;;
58752;SDS011;44525;46.052;13.610;2022-11-20T12:15:24;2.92;;;2.10;;
58752;SDS011;44525;46.052;13.610;2022-11-20T12:17:55;2.75;;;1.65;;
58752;SDS011;44525;46.052;13.610;2022-11-20T12:20:22;3.33;;;1.90;;
58752;SDS011;44525;46.052;13.610;2022-11-20T12:23:02;1.98;;;1.45;;
58752;SDS011;44525;46.052;13.610;2022-11-20T12:31:30;3.60;;;2.20;;
58752;SDS011;44525;46.052;13.610;2022-11-20T12:58:37;2.85;;;1.70;;
58752;SDS011;44525;46.052;13.610;2022-11-20T13:06:44;5.53;;;2.35;;
58752;SDS011;44525;46.052;13.610;2022-11-20T13:09:14;2.42;;;1.90;;
58752;SDS011;44525;46.052;13.610;2022-11-20T13:17:31;3.95;;;2.47;;
58752;SDS011;44525;46.052;13.610;2022-11-20T13:20:00;4.15;;;2.60;;
58752;SDS011;44525;46.052;13.610;2022-11-20T13:22:43;2.50;;;2.10;;
58752;SDS011;44525;46.052;13.610;2022-11-20T13:25:25;3.30;;;1.90;;
58752;SDS011;44525;46.052;13.610;2022-11-20T13:27:51;3.05;;;2.22;;
58752;SDS011;44525;46.052;13.610;2022-11-20T13:30:21;3.70;;;2.50;;
58752;SDS011;44525;46.052;13.610;2022-11-20T13:32:49;3.83;;;2.40;;
58752;SDS011;44525;46.052;13.610;2022-11-20T13:38:51;2.88;;;2.20;;
58752;SDS011;44525;46.052;13.610;2022-11-20T13:41:29;2.10;;;1.90;;
58752;SDS011;44525;46.052;13.610;2022-11-20T13:46:59;2.30;;;1.92;;
58752;SDS011;44525;46.052;13.610;2022-11-20T13:49:26;3.40;;;2.17;;
58752;SDS011;44525;46.052;13.610;2022-11-20T13:55:16;7.60;;;4.30;;
58752;SDS011;44525;46.052;13.610;2022-11-20T14:00:50;34.25;;;19.65;;
58752;SDS011;44525;46.052;13.610;2022-11-20T14:03:22;10.05;;;5.15;;
58752;SDS011;44525;46.052;13.610;2022-11-20T14:05:54;8.57;;;6.03;;
58752;SDS011;44525;46.052;13.610;2022-11-20T14:08:33;9.60;;;6.88;;
58752;SDS011;44525;46.052;13.610;2022-11-20T14:11:04;11.63;;;9.10;;
58752;SDS011;44525;46.052;13.610;2022-11-20T14:14:00;5.43;;;3.53;;
58752;SDS011;44525;46.052;13.610;2022-11-20T14:16:29;4.32;;;2.78;;
58752;SDS011;44525;46.052;13.610;2022-11-20T14:21:53;5.88;;;3.58;;
58752;SDS011;44525;46.052;13.610;2022-11-20T14:24:31;6.13;;;3.10;;
58752;SDS011;44525;46.052;13.610;2022-11-20T14:26:56;2.75;;;2.00;;
58752;SDS011;44525;46.052;13.610;2022-11-20T14:29:23;2.60;;;2.10;;
58752;SDS011;44525;46.052;13.610;2022-11-20T14:31:54;3.70;;;2.40;;
58752;SDS011;44525;46.052;13.610;2022-11-20T14:34:23;3.58;;;2.50;;
58752;SDS011;44525;46.052;13.610;2022-11-20T14:36:55;5.47;;;2.75;;
58752;SDS011;44525;46.052;13.610;2022-11-20T14:39:29;7.00;;;3.42;;
58752;SDS011;44525;46.052;13.610;2022-11-20T14:41:57;10.55;;;4.70;;
58752;SDS011;44525;46.052;13.610;2022-11-20T14:44:25;7.25;;;3.22;;
58752;SDS011;44525;46.052;13.610;2022-11-20T14:46:53;5.18;;;2.90;;
58752;SDS011;44525;46.052;13.610;2022-11-20T14:49:20;4.90;;;2.83;;
58752;SDS011;44525;46.052;13.610;2022-11-20T14:51:46;2.97;;;2.22;;
58752;SDS011;44525;46.052;13.610;2022-11-20T14:54:12;4.40;;;2.70;;
58752;SDS011;44525;46.052;13.610;2022-11-20T14:56:40;6.03;;;3.20;;
58752;SDS011;44525;46.052;13.610;2022-11-20T14:59:07;5.35;;;3.22;;
58752;SDS011;44525;46.052;13.610;2022-11-20T15:01:34;3.28;;;2.63;;
58752;SDS011;44525;46.052;13.610;2022-11-20T15:04:07;3.58;;;2.60;;
58752;SDS011;44525;46.052;13.610;2022-11-20T15:06:35;3.70;;;2.70;;
58752;SDS011;44525;46.052;13.610;2022-11-20T15:09:04;3.42;;;2.60;;
58752;SDS011;44525;46.052;13.610;2022-11-20T15:11:38;5.25;;;2.95;;
58752;SDS011;44525;46.052;13.610;2022-11-20T15:14:06;2.67;;;2.25;;
58752;SDS011;44525;46.052;13.610;2022-11-20T15:16:34;3.15;;;2.40;;
58752;SDS011;44525;46.052;13.610;2022-11-20T15:19:00;3.63;;;2.45;;
58752;SDS011;44525;46.052;13.610;2022-11-20T15:21:27;2.35;;;1.70;;
58752;SDS011;44525;46.052;13.610;2022-11-20T15:23:52;2.70;;;2.28;;
58752;SDS011;44525;46.052;13.610;2022-11-20T15:26:23;3.80;;;2.70;;
58752;SDS011;44525;46.052;13.610;2022-11-20T15:28:51;4.55;;;2.70;;
58752;SDS011;44525;46.052;13.610;2022-11-20T15:31:21;4.60;;;3.20;;
58752;SDS011;44525;46.052;13.610;2022-11-20T15:33:48;8.48;;;6.10;;
58752;SDS011;44525;46.052;13.610;2022-11-20T15:36:14;3.72;;;2.42;;
58752;SDS011;44525;46.052;13.610;2022-11-20T15:38:40;10.30;;;5.47;;
58752;SDS011;44525;46.052;13.610;2022-11-20T15:41:05;22.80;;;10.77;;
58752;SDS011;44525;46.052;13.610;2022-11-20T15:43:31;28.20;;;14.55;;
58752;SDS011;44525;46.052;13.610;2022-11-20T15:46:00;30.48;;;14.05;;
58752;SDS011;44525;46.052;13.610;2022-11-20T15:48:30;7.53;;;4.47;;
58752;SDS011;44525;46.052;13.610;2022-11-20T15:51:13;16.17;;;10.55;;
58752;SDS011;44525;46.052;13.610;2022-11-20T15:53:48;13.50;;;8.00;;
58752;SDS011;44525;46.052;13.610;2022-11-20T15:56:14;11.05;;;6.05;;
58752;SDS011;44525;46.052;13.610;2022-11-20T15:58:40;10.15;;;7.38;;
58752;SDS011;44525;46.052;13.610;2022-11-20T16:01:09;10.27;;;6.35;;
58752;SDS011;44525;46.052;13.610;2022-11-20T16:03:36;12.07;;;7.57;;
58752;SDS011;44525;46.052;13.610;2022-11-20T16:06:02;15.38;;;8.60;;
58752;SDS011;44525;46.052;13.610;2022-11-20T16:08:28;25.38;;;18.02;;
58752;SDS011;44525;46.052;13.610;2022-11-20T16:10:53;23.98;;;17.23;;
58752;SDS011;44525;46.052;13.610;2022-11-20T16:13:18;18.77;;;14.55;;
58752;SDS011;44525;46.052;13.610;2022-11-20T16:16:04;22.92;;;14.98;;
58752;SDS011;44525;46.052;13.610;2022-11-20T16:18:33;10.20;;;6.70;;
58752;SDS011;44525;46.052;13.610;2022-11-20T16:20:58;13.77;;;8.75;;
58752;SDS011;44525;46.052;13.610;2022-11-20T16:23:24;8.00;;;5.32;;
58752;SDS011;44525;46.052;13.610;2022-11-20T16:25:50;13.55;;;10.63;;
58752;SDS011;44525;46.052;13.610;2022-11-20T16:28:16;8.63;;;4.65;;